createdAt,value
2022-10-22T00:01:28.582Z,15.30
2022-10-22T00:05:44.776Z,13.30
2022-10-22T00:10:01.094Z,11.12
2022-10-22T00:14:17.611Z,10.82
2022-10-22T00:18:33.737Z,11.32
2022-10-22T00:27:12.476Z,13.07
2022-10-22T00:31:28.609Z,10.18
2022-10-22T00:35:45.336Z,8.93
2022-10-22T00:40:01.498Z,9.70
2022-10-22T00:44:55.055Z,11.25
2022-10-22T00:49:11.250Z,13.00
2022-10-22T00:53:39.909Z,11.38
2022-10-22T00:57:57.731Z,9.23
2022-10-22T01:02:13.910Z,10.57
2022-10-22T01:06:34.851Z,9.57
2022-10-22T01:11:17.467Z,8.82
2022-10-22T01:15:46.086Z,10.43
2022-10-22T01:20:29.647Z,8.77
2022-10-22T01:24:49.285Z,11.52
2022-10-22T01:29:19.121Z,13.88
2022-10-22T01:33:36.568Z,8.75
2022-10-22T01:37:59.607Z,10.27
2022-10-22T01:42:15.760Z,9.80
2022-10-22T01:46:32.636Z,8.48
2022-10-22T01:51:03.985Z,9.13
2022-10-22T01:55:29.040Z,9.75
2022-10-22T01:59:50.848Z,12.65
2022-10-22T02:04:19.181Z,7.45
2022-10-22T02:08:36.027Z,8.93
2022-10-22T02:12:54.890Z,9.82
2022-10-22T02:17:16.166Z,10.80
2022-10-22T02:21:32.458Z,8.48
2022-10-22T02:25:51.887Z,8.27
2022-10-22T02:34:37.769Z,8.07
2022-10-22T02:38:54.550Z,8.00
2022-10-22T02:43:11.011Z,13.23
2022-10-22T02:47:27.229Z,7.05
2022-10-22T02:51:43.466Z,9.05
2022-10-22T02:56:00.394Z,11.18
2022-10-22T03:00:17.059Z,8.07
2022-10-22T03:04:33.252Z,8.63
2022-10-22T03:08:49.508Z,8.95
2022-10-22T03:13:05.667Z,9.40
2022-10-22T03:17:21.775Z,9.13
2022-10-22T03:21:52.313Z,14.77
2022-10-22T03:26:08.824Z,8.32
2022-10-22T03:30:24.956Z,8.98
2022-10-22T03:34:41.145Z,8.48
2022-10-22T03:38:57.211Z,7.03
2022-10-22T03:43:13.525Z,7.20
2022-10-22T03:47:29.601Z,10.20
2022-10-22T03:51:45.729Z,8.30
2022-10-22T03:56:01.985Z,10.75
2022-10-22T04:00:18.334Z,8.93
2022-10-22T04:04:34.695Z,9.25
2022-10-22T04:08:51.079Z,8.88
2022-10-22T04:13:07.280Z,10.10
2022-10-22T04:17:23.495Z,7.82
2022-10-22T04:21:39.597Z,9.98
2022-10-22T04:26:00.500Z,9.45
2022-10-22T04:30:16.744Z,10.10
2022-10-22T04:34:32.818Z,15.02
2022-10-22T04:38:52.890Z,11.32
2022-10-22T04:43:09.032Z,9.63
2022-10-22T04:47:25.276Z,8.43
2022-10-22T04:51:41.764Z,13.70
2022-10-22T04:56:11.673Z,10.07
2022-10-22T05:00:28.006Z,10.48
2022-10-22T05:04:45.308Z,9.25
2022-10-22T05:09:04.083Z,8.90
2022-10-22T05:13:20.406Z,10.63
2022-10-22T05:17:37.768Z,11.73
2022-10-22T05:21:56.037Z,12.25
2022-10-22T05:26:14.014Z,10.50
2022-10-22T05:30:30.253Z,12.27
2022-10-22T05:34:46.371Z,8.02
2022-10-22T05:39:02.555Z,8.70
2022-10-22T05:43:18.722Z,9.60
2022-10-22T05:47:34.879Z,14.00
2022-10-22T05:51:51.043Z,12.30
2022-10-22T05:56:11.151Z,10.52
2022-10-22T06:00:27.351Z,10.35
2022-10-22T06:04:43.595Z,8.88
2022-10-22T06:09:03.332Z,10.75
2022-10-22T06:13:19.446Z,10.35
2022-10-22T06:17:35.566Z,14.40
2022-10-22T06:21:51.706Z,13.45
2022-10-22T06:26:09.247Z,13.90
2022-10-22T06:30:25.527Z,12.80
2022-10-22T06:34:41.656Z,16.55
2022-10-22T06:38:57.927Z,19.75
2022-10-22T06:43:14.824Z,12.90
2022-10-22T06:47:33.591Z,16.00
2022-10-22T06:51:53.922Z,13.05
2022-10-22T06:56:15.513Z,15.07
2022-10-22T07:04:47.826Z,14.43
2022-10-22T07:09:04.296Z,11.50
2022-10-22T07:13:21.255Z,14.80
2022-10-22T07:17:37.398Z,15.00
2022-10-22T07:21:54.640Z,16.17
2022-10-22T07:26:14.199Z,12.05
2022-10-22T07:30:30.438Z,17.02
2022-10-22T07:34:46.548Z,13.32
2022-10-22T07:39:03.736Z,14.30
2022-10-22T07:43:20.226Z,12.05
2022-10-22T07:47:36.671Z,16.10
2022-10-22T07:51:52.880Z,16.45
2022-10-22T07:56:09.228Z,15.82
2022-10-22T08:00:25.575Z,11.32
2022-10-22T08:04:42.253Z,15.57
2022-10-22T08:08:58.434Z,18.60
2022-10-22T08:13:15.427Z,11.73
2022-10-22T08:17:31.608Z,12.25
2022-10-22T08:21:48.387Z,11.07
2022-10-22T08:26:04.968Z,14.10
2022-10-22T08:30:21.463Z,14.18
2022-10-22T08:34:37.573Z,11.73
2022-10-22T08:38:54.063Z,14.48
2022-10-22T08:43:16.350Z,9.63
2022-10-22T08:47:59.979Z,12.23
2022-10-22T08:52:19.069Z,14.55
2022-10-22T08:56:37.007Z,11.40
2022-10-22T09:01:18.335Z,14.02
2022-10-22T09:10:13.311Z,13.70
2022-10-22T09:14:30.167Z,11.20
2022-10-22T09:19:08.415Z,13.13
2022-10-22T09:23:40.141Z,13.70
2022-10-22T09:27:58.818Z,11.60
2022-10-22T09:32:18.690Z,14.02
2022-10-22T09:36:36.239Z,14.87
2022-10-22T09:40:54.570Z,29.35
2022-10-22T09:45:26.963Z,19.30
2022-10-22T09:49:43.386Z,15.40
2022-10-22T09:54:02.124Z,11.18
2022-10-22T09:58:19.078Z,14.55
2022-10-22T10:02:38.747Z,12.70
2022-10-22T10:07:00.021Z,14.75
2022-10-22T10:11:43.629Z,12.75
2022-10-22T10:16:29.230Z,17.27
2022-10-22T10:21:10.930Z,19.70
2022-10-22T10:25:36.339Z,18.17
2022-10-22T10:30:14.194Z,16.50
2022-10-22T10:35:20.145Z,19.60
2022-10-22T10:39:44.921Z,19.25
2022-10-22T10:44:16.046Z,14.05
2022-10-22T10:48:55.971Z,23.83
2022-10-22T10:53:33.916Z,16.75
2022-10-22T10:58:19.689Z,19.62
2022-10-22T11:03:03.802Z,16.70
2022-10-22T11:07:35.264Z,15.32
2022-10-22T11:12:01.118Z,15.10
2022-10-22T11:16:37.515Z,11.65
2022-10-22T11:20:57.427Z,16.73
2022-10-22T11:25:13.550Z,14.75
2022-10-22T11:29:41.202Z,15.27
2022-10-22T11:34:32.582Z,14.50
2022-10-22T11:38:50.215Z,17.95
2022-10-22T11:43:11.277Z,13.45
2022-10-22T11:47:33.272Z,15.48
2022-10-22T11:51:50.172Z,12.43
2022-10-22T11:56:10.882Z,17.33
2022-10-22T12:00:48.285Z,13.85
2022-10-22T12:05:33.455Z,16.12
2022-10-22T12:14:45.784Z,14.23
2022-10-22T12:19:23.476Z,17.83
2022-10-22T12:23:39.595Z,19.50
2022-10-22T12:28:00.025Z,14.30
2022-10-22T12:32:17.067Z,17.30
2022-10-22T12:36:36.014Z,14.45
2022-10-22T12:40:55.775Z,16.52
2022-10-22T12:45:11.971Z,15.00
2022-10-22T12:49:38.907Z,19.73
2022-10-22T12:54:02.363Z,23.65
2022-10-22T13:02:36.430Z,31.08
2022-10-22T13:07:17.009Z,29.92
2022-10-22T13:11:41.589Z,30.48
2022-10-22T13:16:12.687Z,25.80
2022-10-22T13:20:29.020Z,32.58
2022-10-22T13:24:51.616Z,16.45
2022-10-22T13:29:12.711Z,18.97
2022-10-22T13:33:42.659Z,39.40
2022-10-22T13:37:59.515Z,28.30
2022-10-22T13:42:15.623Z,29.77
2022-10-22T13:46:32.252Z,16.73
2022-10-22T13:50:51.957Z,20.65
2022-10-22T13:55:29.478Z,17.42
2022-10-22T13:59:45.710Z,13.52
2022-10-22T14:04:04.781Z,16.55
2022-10-22T14:08:23.294Z,18.15
2022-10-22T14:12:39.389Z,16.98
2022-10-22T14:16:55.480Z,13.25
2022-10-22T14:21:13.492Z,14.52
2022-10-22T14:25:31.891Z,15.93
2022-10-22T14:29:48.075Z,13.40
2022-10-22T14:34:04.173Z,18.15
2022-10-22T14:38:20.845Z,20.15
2022-10-22T14:42:42.956Z,16.02
2022-10-22T14:46:59.333Z,16.90
2022-10-22T14:51:17.810Z,20.42
2022-10-22T14:55:34.359Z,16.02
2022-10-22T14:59:50.661Z,21.98
2022-10-22T15:04:06.778Z,24.35
2022-10-22T15:08:22.975Z,18.70
2022-10-22T15:12:39.268Z,24.27
2022-10-22T15:16:55.333Z,26.30
2022-10-22T15:21:19.937Z,28.33
2022-10-22T15:25:36.051Z,34.78
2022-10-22T15:29:52.275Z,52.92
2022-10-22T15:34:08.412Z,24.35
2022-10-22T15:42:46.858Z,24.98
2022-10-22T15:47:07.498Z,48.13
2022-10-22T15:51:24.292Z,34.22
2022-10-22T15:55:40.753Z,24.85
2022-10-22T15:59:56.939Z,25.35
2022-10-22T16:04:13.565Z,25.62
2022-10-22T16:08:30.095Z,36.20
2022-10-22T16:12:46.594Z,43.08
2022-10-22T16:17:02.723Z,34.58
2022-10-22T16:21:20.611Z,33.15
2022-10-22T16:25:43.760Z,30.08
2022-10-22T16:29:59.912Z,23.80
2022-10-22T16:34:16.057Z,31.10
2022-10-22T16:38:32.247Z,25.48
2022-10-22T16:42:48.671Z,26.00
2022-10-22T16:47:04.811Z,28.52
2022-10-22T16:51:23.886Z,28.25
2022-10-22T16:55:41.291Z,24.95
2022-10-22T16:59:57.756Z,30.15
2022-10-22T17:04:14.276Z,29.67
2022-10-22T17:08:31.077Z,37.92
2022-10-22T17:12:48.314Z,29.58
2022-10-22T17:17:04.446Z,26.58
2022-10-22T17:21:21.289Z,23.95
2022-10-22T17:25:42.994Z,28.70
2022-10-22T17:29:59.095Z,27.77
2022-10-22T17:34:19.068Z,32.28
2022-10-22T17:38:35.643Z,31.70
2022-10-22T17:42:51.829Z,32.53
2022-10-22T17:47:08.016Z,32.42
2022-10-22T17:51:25.060Z,27.02
2022-10-22T17:55:41.764Z,24.80
2022-10-22T17:59:57.892Z,24.95
2022-10-22T18:04:19.446Z,27.37
2022-10-22T18:08:36.245Z,27.48
2022-10-22T18:12:52.478Z,29.63
2022-10-22T18:17:08.773Z,25.83
2022-10-22T18:21:27.983Z,26.05
2022-10-22T18:25:44.263Z,28.48
2022-10-22T18:30:00.410Z,25.30
2022-10-22T18:34:21.591Z,24.75
2022-10-22T18:38:40.216Z,26.12
2022-10-22T18:42:56.917Z,25.05
2022-10-22T18:47:13.127Z,24.85
2022-10-22T18:51:31.730Z,25.67
2022-10-22T18:55:47.906Z,27.62
2022-10-22T19:00:05.131Z,27.00
2022-10-22T19:04:21.315Z,30.60
2022-10-22T19:08:38.029Z,30.55
2022-10-22T19:12:54.664Z,34.28
2022-10-22T19:17:10.866Z,24.00
2022-10-22T19:21:27.036Z,25.75
2022-10-22T19:25:43.270Z,27.77
2022-10-22T19:29:59.399Z,28.42
2022-10-22T19:34:20.159Z,26.27
2022-10-22T19:38:40.794Z,33.83
2022-10-22T19:42:57.109Z,27.60
2022-10-22T19:47:13.334Z,33.22
2022-10-22T19:51:30.693Z,32.05
2022-10-22T19:55:47.078Z,32.60
2022-10-22T20:00:03.760Z,31.65
2022-10-22T20:04:20.061Z,32.38
2022-10-22T20:08:40.059Z,31.27
2022-10-22T20:12:56.276Z,33.45
2022-10-22T20:17:12.869Z,31.83
2022-10-22T20:21:29.443Z,30.23
2022-10-22T20:25:47.862Z,31.33
2022-10-22T20:30:06.020Z,29.45
2022-10-22T20:34:22.330Z,29.75
2022-10-22T20:38:38.555Z,32.88
2022-10-22T20:42:54.644Z,29.27
2022-10-22T20:47:12.620Z,32.70
2022-10-22T20:51:29.523Z,31.73
2022-10-22T20:55:46.067Z,31.85
2022-10-22T21:00:02.252Z,31.15
2022-10-22T21:04:20.012Z,29.95
2022-10-22T21:08:36.131Z,32.17
2022-10-22T21:12:52.380Z,31.62
2022-10-22T21:17:08.836Z,29.33
2022-10-22T21:21:25.052Z,33.30
2022-10-22T21:25:43.380Z,31.00
2022-10-22T21:30:00.653Z,29.95
2022-10-22T21:34:17.871Z,32.08
2022-10-22T21:38:35.201Z,32.17
2022-10-22T21:42:51.588Z,31.98
2022-10-22T21:47:07.949Z,37.95
2022-10-22T21:51:25.732Z,30.50
2022-10-22T21:55:42.018Z,35.08
2022-10-22T21:59:58.225Z,35.70
2022-10-22T22:04:14.375Z,34.58
2022-10-22T22:08:30.783Z,35.35
2022-10-22T22:12:47.087Z,38.22
2022-10-22T22:17:03.220Z,38.75
2022-10-22T22:21:21.355Z,34.60
2022-10-22T22:25:37.563Z,40.38
2022-10-22T22:29:54.792Z,39.00
2022-10-22T22:34:16.799Z,37.75
2022-10-22T22:38:33.238Z,34.92
2022-10-22T22:42:49.850Z,36.35
2022-10-22T22:47:06.118Z,36.05
2022-10-22T22:51:22.309Z,38.08
2022-10-22T22:55:38.447Z,36.20
2022-10-22T22:59:54.659Z,40.28
2022-10-22T23:04:22.783Z,40.08
2022-10-22T23:08:39.223Z,36.13
2022-10-22T23:12:55.375Z,34.67
2022-10-22T23:17:11.524Z,33.78
2022-10-22T23:21:30.431Z,41.10
2022-10-22T23:25:46.597Z,39.22
2022-10-22T23:30:02.904Z,37.10
2022-10-22T23:34:21.358Z,34.28
2022-10-22T23:38:39.410Z,33.85
2022-10-22T23:42:55.678Z,33.03
2022-10-22T23:47:11.932Z,32.85
2022-10-22T23:51:28.548Z,37.70
2022-10-22T23:55:45.405Z,36.78
